createdAt,value
2022-08-10T00:00:21.769Z,99.90
2022-08-10T00:02:23.550Z,99.90
2022-08-10T00:04:25.341Z,99.90
2022-08-10T00:06:27.396Z,99.90
2022-08-10T00:08:29.757Z,99.90
2022-08-10T00:10:31.514Z,99.90
2022-08-10T00:12:53.643Z,99.90
2022-08-10T00:14:55.229Z,99.90
2022-08-10T00:16:56.995Z,99.90
2022-08-10T00:18:58.713Z,99.90
2022-08-10T00:21:00.537Z,99.90
2022-08-10T00:23:02.342Z,99.90
2022-08-10T00:25:05.294Z,99.90
2022-08-10T00:28:01.472Z,99.90
2022-08-10T00:29:28.831Z,99.90
2022-08-10T00:31:30.571Z,99.90
2022-08-10T00:33:32.403Z,99.90
2022-08-10T00:35:34.199Z,99.90
2022-08-10T00:37:36.146Z,99.90
2022-08-10T00:39:39.447Z,99.90
2022-08-10T00:41:41.416Z,99.90
2022-08-10T00:43:43.255Z,99.90
2022-08-10T00:45:45.023Z,99.90
2022-08-10T00:48:01.872Z,99.90
2022-08-10T00:50:05.687Z,99.90
2022-08-10T00:52:09.148Z,99.90
2022-08-10T00:54:11.404Z,99.90
2022-08-10T00:57:14.130Z,99.90
2022-08-10T00:58:49.076Z,99.90
2022-08-10T01:00:51.117Z,99.90
2022-08-10T01:02:53.181Z,99.90
2022-08-10T01:05:00.376Z,99.90
2022-08-10T01:07:21.952Z,99.90
2022-08-10T01:09:42.609Z,99.90
2022-08-10T01:12:39.092Z,99.90
2022-08-10T01:14:56.773Z,99.90
2022-08-10T01:17:05.245Z,99.90
2022-08-10T01:19:18.643Z,99.90
2022-08-10T01:21:38.949Z,99.90
2022-08-10T01:24:17.769Z,99.90
2022-08-10T01:26:43.576Z,99.90
2022-08-10T01:29:03.892Z,99.90
2022-08-10T01:31:08.986Z,99.90
2022-08-10T01:33:59.194Z,99.90
2022-08-10T01:36:02.073Z,99.90
2022-08-10T01:38:03.820Z,99.90
2022-08-10T01:40:09.939Z,99.90
2022-08-10T01:42:16.810Z,99.90
2022-08-10T01:44:46.276Z,99.90
2022-08-10T01:46:56.950Z,99.90
2022-08-10T01:49:00.633Z,99.90
2022-08-10T01:51:10.204Z,99.90
2022-08-10T01:53:18.860Z,99.90
2022-08-10T01:55:21.697Z,99.90
2022-08-10T01:57:25.738Z,99.90
2022-08-10T01:59:35.203Z,99.90
2022-08-10T02:01:43.528Z,99.90
2022-08-10T02:04:05.052Z,99.90
2022-08-10T02:06:09.251Z,99.90
2022-08-10T02:08:14.929Z,99.90
2022-08-10T02:10:19.279Z,99.90
2022-08-10T02:12:26.402Z,99.90
2022-08-10T02:14:34.474Z,99.90
2022-08-10T02:16:39.710Z,99.90
2022-08-10T02:18:42.885Z,99.90
2022-08-10T02:20:48.509Z,99.90
2022-08-10T02:22:56.452Z,99.90
2022-08-10T02:25:00.220Z,99.90
2022-08-10T02:27:05.764Z,99.90
2022-08-10T02:29:09.971Z,99.90
2022-08-10T02:31:15.143Z,99.90
2022-08-10T02:33:20.143Z,99.90
2022-08-10T02:35:26.457Z,99.90
2022-08-10T02:37:37.469Z,99.90
2022-08-10T02:39:39.542Z,99.90
2022-08-10T02:45:13.777Z,99.90
2022-08-10T02:45:22.326Z,99.90
2022-08-10T02:46:48.631Z,99.90
2022-08-10T02:48:59.903Z,99.90
2022-08-10T02:51:08.734Z,99.90
2022-08-10T02:53:55.941Z,99.90
2022-08-10T02:55:50.968Z,99.90
2022-08-10T02:58:17.058Z,99.90
2022-08-10T03:00:18.583Z,99.90
2022-08-10T03:02:25.196Z,99.90
2022-08-10T03:04:55.915Z,99.90
2022-08-10T03:07:06.085Z,99.90
2022-08-10T03:09:10.170Z,99.90
2022-08-10T03:12:35.281Z,99.90
2022-08-10T03:13:44.550Z,99.90
2022-08-10T03:15:47.207Z,99.90
2022-08-10T03:17:57.195Z,99.90
2022-08-10T03:20:33.705Z,99.90
2022-08-10T03:22:24.534Z,99.90
2022-08-10T03:24:30.499Z,99.90
2022-08-10T03:26:37.628Z,99.90
2022-08-10T03:28:39.990Z,99.90
2022-08-10T03:30:42.297Z,99.90
2022-08-10T03:32:44.880Z,99.90
2022-08-10T03:34:47.624Z,99.90
2022-08-10T03:36:49.494Z,99.90
2022-08-10T03:38:54.251Z,99.90
2022-08-10T03:40:58.931Z,99.90
2022-08-10T03:43:03.206Z,99.90
2022-08-10T03:45:06.391Z,99.90
2022-08-10T03:47:15.920Z,99.90
2022-08-10T03:49:20.520Z,99.90
2022-08-10T03:51:23.928Z,99.90
2022-08-10T03:54:04.508Z,99.90
2022-08-10T03:56:30.455Z,99.90
2022-08-10T03:58:12.042Z,99.90
2022-08-10T04:00:18.322Z,99.90
2022-08-10T04:02:43.627Z,99.90
2022-08-10T04:04:42.213Z,99.90
2022-08-10T04:06:44.953Z,99.90
2022-08-10T04:08:47.348Z,99.90
2022-08-10T04:10:49.132Z,99.90
2022-08-10T04:12:50.948Z,99.90
2022-08-10T04:14:53.740Z,99.90
2022-08-10T04:16:55.767Z,99.90
2022-08-10T04:18:57.750Z,99.90
2022-08-10T04:21:22.957Z,99.90
2022-08-10T04:23:30.432Z,99.90
2022-08-10T04:25:32.693Z,99.90
2022-08-10T04:27:34.535Z,99.90
2022-08-10T04:29:36.629Z,99.90
2022-08-10T04:31:40.440Z,99.90
2022-08-10T04:33:48.108Z,99.90
2022-08-10T04:35:51.563Z,99.90
2022-08-10T04:37:55.785Z,99.90
2022-08-10T04:39:57.752Z,99.90
2022-08-10T04:42:00.460Z,99.90
2022-08-10T04:44:02.283Z,99.90
2022-08-10T04:46:04.118Z,99.90
2022-08-10T04:48:42.084Z,99.90
2022-08-10T04:50:38.057Z,99.90
2022-08-10T04:52:40.046Z,99.90
2022-08-10T04:54:41.923Z,99.90
2022-08-10T04:56:43.729Z,99.90
2022-08-10T04:58:45.513Z,99.90
2022-08-10T05:00:47.698Z,99.90
2022-08-10T05:02:49.589Z,99.90
2022-08-10T05:04:51.380Z,99.90
2022-08-10T05:06:53.107Z,99.90
2022-08-10T05:08:54.873Z,99.90
2022-08-10T05:10:56.857Z,99.90
2022-08-10T05:12:58.557Z,99.90
2022-08-10T05:15:00.338Z,99.90
2022-08-10T05:17:02.063Z,99.90
2022-08-10T05:19:03.903Z,99.90
2022-08-10T05:21:05.908Z,99.90
2022-08-10T05:23:07.725Z,99.90
2022-08-10T05:25:15.588Z,99.90
2022-08-10T05:27:17.317Z,99.90
2022-08-10T05:29:19.129Z,99.90
2022-08-10T05:31:22.608Z,99.90
2022-08-10T05:33:26.088Z,99.90
2022-08-10T05:35:34.654Z,99.90
2022-08-10T05:38:10.909Z,99.90
2022-08-10T05:40:15.024Z,99.90
2022-08-10T05:42:17.851Z,99.90
2022-08-10T05:44:22.142Z,99.90
2022-08-10T05:46:23.892Z,99.90
2022-08-10T05:48:54.900Z,99.90
2022-08-10T05:50:47.599Z,99.90
2022-08-10T05:52:49.973Z,99.90
2022-08-10T05:54:51.807Z,99.90
2022-08-10T05:56:58.091Z,99.90
2022-08-10T05:59:00.232Z,99.90
2022-08-10T06:01:06.003Z,99.90
2022-08-10T06:03:10.808Z,99.90
2022-08-10T06:05:30.554Z,99.90
2022-08-10T06:07:35.043Z,99.90
2022-08-10T06:09:37.977Z,99.90
2022-08-10T06:12:25.271Z,99.90
2022-08-10T06:14:43.091Z,99.90
2022-08-10T06:16:55.783Z,99.90
2022-08-10T06:18:58.676Z,99.90
2022-08-10T06:21:01.556Z,99.90
2022-08-10T06:23:04.334Z,99.90
2022-08-10T06:25:38.087Z,99.90
2022-08-10T06:27:34.815Z,99.90
2022-08-10T06:29:40.631Z,99.90
2022-08-10T06:31:50.492Z,99.90
2022-08-10T06:33:54.078Z,99.90
2022-08-10T06:35:57.216Z,99.90
2022-08-10T06:38:01.855Z,99.90
2022-08-10T06:40:04.316Z,99.90
2022-08-10T06:42:18.096Z,99.90
2022-08-10T06:44:28.137Z,99.90
2022-08-10T06:46:33.610Z,99.90
2022-08-10T06:48:46.907Z,99.90
2022-08-10T06:50:59.012Z,99.90
2022-08-10T06:53:02.930Z,99.90
2022-08-10T06:55:08.746Z,99.90
2022-08-10T06:57:19.085Z,99.90
2022-08-10T06:59:36.984Z,99.90
2022-08-10T07:01:41.343Z,99.90
2022-08-10T07:04:00.200Z,99.90
2022-08-10T07:06:05.357Z,99.90
2022-08-10T07:08:08.644Z,99.90
2022-08-10T07:10:11.675Z,99.90
2022-08-10T07:12:16.709Z,99.90
2022-08-10T07:14:19.434Z,99.90
2022-08-10T07:16:22.067Z,99.90
2022-08-10T07:18:25.572Z,99.90
2022-08-10T07:20:28.935Z,99.90
2022-08-10T07:23:54.401Z,99.90
2022-08-10T07:24:56.162Z,99.90
2022-08-10T07:26:59.347Z,99.90
2022-08-10T07:29:02.526Z,99.90
2022-08-10T07:31:29.763Z,99.90
2022-08-10T07:33:28.775Z,99.90
2022-08-10T07:35:41.403Z,99.90
2022-08-10T07:37:49.288Z,99.90
2022-08-10T07:39:58.430Z,99.90
2022-08-10T07:42:09.947Z,99.90
2022-08-10T07:44:12.597Z,99.90
2022-08-10T07:46:15.954Z,99.90
2022-08-10T07:48:24.814Z,99.90
2022-08-10T07:50:28.202Z,99.90
2022-08-10T07:52:37.980Z,99.90
2022-08-10T07:54:45.777Z,99.90
2022-08-10T07:56:50.365Z,99.90
2022-08-10T07:58:58.008Z,99.90
2022-08-10T08:01:01.183Z,99.90
2022-08-10T08:03:03.852Z,99.90
2022-08-10T08:05:09.517Z,99.90
2022-08-10T08:07:13.588Z,99.90
2022-08-10T08:09:15.615Z,99.90
2022-08-10T08:11:26.361Z,99.90
2022-08-10T08:13:29.533Z,99.90
2022-08-10T08:16:17.370Z,99.90
2022-08-10T08:18:00.643Z,99.90
2022-08-10T08:20:04.173Z,99.90
2022-08-10T08:24:04.876Z,99.90
2022-08-10T08:24:35.333Z,99.90
2022-08-10T08:26:38.364Z,99.90
2022-08-10T08:28:41.659Z,99.90
2022-08-10T08:30:48.683Z,99.90
2022-08-10T08:32:51.418Z,99.90
2022-08-10T08:34:58.605Z,99.90
2022-08-10T08:37:05.820Z,99.90
2022-08-10T08:39:08.348Z,99.90
2022-08-10T08:41:28.080Z,99.90
2022-08-10T08:43:51.801Z,99.90
2022-08-10T08:46:38.399Z,99.90
2022-08-10T08:49:08.295Z,99.90
2022-08-10T08:52:07.825Z,99.90
2022-08-10T08:54:53.089Z,99.90
2022-08-10T08:57:47.254Z,99.90
2022-08-10T09:00:12.761Z,99.90
2022-08-10T09:02:16.233Z,99.90
2022-08-10T09:04:30.115Z,99.90
2022-08-10T09:07:03.282Z,99.30
2022-08-10T09:09:16.978Z,98.40
2022-08-10T09:11:19.231Z,99.20
2022-08-10T09:13:39.694Z,98.10
2022-08-10T09:16:19.881Z,97.80
2022-08-10T09:18:40.204Z,97.10
2022-08-10T09:21:06.636Z,98.40
2022-08-10T09:24:01.776Z,96.10
2022-08-10T09:25:59.309Z,97.30
2022-08-10T09:28:04.240Z,96.90
2022-08-10T09:30:08.277Z,96.10
2022-08-10T09:36:15.817Z,94.70
2022-08-10T09:36:21.065Z,96.30
2022-08-10T09:37:39.455Z,97.30
2022-08-10T09:41:00.977Z,95.00
2022-08-10T09:43:26.540Z,93.30
2022-08-10T09:45:53.224Z,91.20
2022-08-10T09:48:30.088Z,91.20
2022-08-10T09:51:22.704Z,92.50
2022-08-10T09:53:57.705Z,92.80
2022-08-10T09:56:17.109Z,90.30
2022-08-10T09:58:42.451Z,91.20
2022-08-10T10:01:10.856Z,89.30
2022-08-10T10:03:44.578Z,88.40
2022-08-10T10:06:18.478Z,91.60
2022-08-10T10:08:25.134Z,86.90
2022-08-10T10:10:36.275Z,86.60
2022-08-10T10:12:55.362Z,85.70
2022-08-10T10:15:24.115Z,86.70
2022-08-10T10:17:55.181Z,89.20
2022-08-10T10:20:32.930Z,85.30
2022-08-10T10:22:41.899Z,85.70
2022-08-10T10:24:52.568Z,85.70
2022-08-10T10:26:58.962Z,85.50
2022-08-10T10:29:56.798Z,83.00
2022-08-10T10:31:58.330Z,84.40
2022-08-10T10:34:06.152Z,83.90
2022-08-10T10:36:10.020Z,84.80
2022-08-10T10:38:14.061Z,81.70
2022-08-10T10:40:18.311Z,84.60
2022-08-10T10:42:44.677Z,86.40
2022-08-10T10:44:58.435Z,80.60
2022-08-10T10:48:00.998Z,78.20
2022-08-10T10:50:15.621Z,80.30
2022-08-10T10:52:37.786Z,74.80
2022-08-10T10:55:04.751Z,86.00
2022-08-10T10:57:22.688Z,73.50
2022-08-10T11:00:02.164Z,72.60
2022-08-10T11:02:28.375Z,71.00
2022-08-10T11:04:59.088Z,69.60
2022-08-10T11:07:10.419Z,70.60
2022-08-10T11:10:08.662Z,70.70
2022-08-10T11:12:01.690Z,75.80
2022-08-10T11:14:25.043Z,76.90
2022-08-10T11:16:47.232Z,75.00
2022-08-10T11:18:49.051Z,70.80
2022-08-10T11:21:00.422Z,72.30
2022-08-10T11:23:14.413Z,80.20
2022-08-10T11:25:29.873Z,69.90
2022-08-10T11:28:00.360Z,73.60
2022-08-10T11:30:02.190Z,70.80
2022-08-10T11:32:27.496Z,67.00
2022-08-10T11:34:47.534Z,72.40
2022-08-10T11:37:25.451Z,67.70
2022-08-10T11:39:49.398Z,66.80
2022-08-10T11:42:09.451Z,68.00
2022-08-10T11:44:34.774Z,79.70
2022-08-10T11:46:57.357Z,68.10
2022-08-10T11:49:33.893Z,63.00
2022-08-10T11:51:55.159Z,63.90
2022-08-10T11:54:07.633Z,74.30
2022-08-10T11:56:16.032Z,62.80
2022-08-10T11:58:38.945Z,66.80
2022-08-10T12:00:41.256Z,61.00
2022-08-10T12:03:05.754Z,69.10
2022-08-10T12:05:18.204Z,58.50
2022-08-10T12:10:01.776Z,68.50
2022-08-10T12:10:10.127Z,54.20
2022-08-10T12:12:07.537Z,60.20
2022-08-10T12:14:21.987Z,57.40
2022-08-10T12:16:26.473Z,54.50
2022-08-10T12:18:46.173Z,59.80
2022-08-10T12:20:53.726Z,53.30
2022-08-10T12:23:18.475Z,64.30
2022-08-10T12:25:55.119Z,55.50
2022-08-10T12:28:10.279Z,49.80
2022-08-10T12:30:15.907Z,53.20
2022-08-10T12:32:29.039Z,51.60
2022-08-10T12:35:04.588Z,56.40
2022-08-10T12:37:12.296Z,51.70
2022-08-10T12:39:20.451Z,49.10
2022-08-10T12:41:44.001Z,50.70
2022-08-10T12:44:04.473Z,58.40
2022-08-10T12:46:32.587Z,60.50
2022-08-10T12:49:28.502Z,57.20
2022-08-10T12:51:33.608Z,58.50
2022-08-10T12:53:48.389Z,49.10
2022-08-10T12:55:50.511Z,47.70
2022-08-10T12:57:55.875Z,50.20
2022-08-10T13:00:01.482Z,50.70
2022-08-10T13:02:06.537Z,55.60
2022-08-10T13:04:23.258Z,46.80
2022-08-10T13:06:27.643Z,47.60
2022-08-10T13:08:52.215Z,50.50
2022-08-10T13:11:00.994Z,53.50
2022-08-10T13:13:03.555Z,46.30
2022-08-10T13:15:50.043Z,48.50
2022-08-10T13:17:52.556Z,54.70
2022-08-10T13:19:59.963Z,56.40
2022-08-10T13:22:06.653Z,46.60
2022-08-10T13:24:10.851Z,51.90
2022-08-10T13:26:17.720Z,46.00
2022-08-10T13:28:37.359Z,49.50
2022-08-10T13:30:43.209Z,45.50
2022-08-10T13:32:53.957Z,49.70
2022-08-10T13:35:00.993Z,49.70
2022-08-10T13:37:11.423Z,47.30
2022-08-10T13:39:14.549Z,44.10
2022-08-10T13:41:18.344Z,46.50
2022-08-10T13:43:20.950Z,46.70
2022-08-10T13:45:25.912Z,47.70
2022-08-10T13:47:31.967Z,53.20
2022-08-10T13:49:55.302Z,51.20
2022-08-10T13:51:58.627Z,48.10
2022-08-10T13:54:01.958Z,49.50
2022-08-10T13:56:06.853Z,52.00
2022-08-10T13:58:09.603Z,48.30
2022-08-10T14:00:37.286Z,46.30
2022-08-10T14:02:52.535Z,57.30
2022-08-10T14:04:57.475Z,51.20
2022-08-10T14:07:01.463Z,55.00
2022-08-10T14:09:10.205Z,53.30
2022-08-10T14:11:16.468Z,57.10
2022-08-10T14:13:20.436Z,54.10
2022-08-10T14:15:30.124Z,53.30
2022-08-10T14:17:32.968Z,54.50
2022-08-10T14:19:43.289Z,51.30
2022-08-10T14:21:45.994Z,58.80
2022-08-10T14:23:52.626Z,52.70
2022-08-10T14:26:09.004Z,55.80
2022-08-10T14:28:12.173Z,56.10
2022-08-10T14:30:17.245Z,51.60
2022-08-10T14:32:23.395Z,52.20
2022-08-10T14:36:15.435Z,52.20
2022-08-10T14:37:00.325Z,51.40
2022-08-10T14:39:03.665Z,51.50
2022-08-10T14:41:15.621Z,50.10
2022-08-10T14:43:42.127Z,52.40
2022-08-10T14:45:47.780Z,55.10
2022-08-10T14:47:59.677Z,54.50
2022-08-10T14:50:05.075Z,49.10
2022-08-10T14:52:09.162Z,51.10
2022-08-10T14:54:15.634Z,56.40
2022-08-10T14:56:30.930Z,50.80
2022-08-10T14:59:05.427Z,54.70
2022-08-10T15:01:11.619Z,51.60
2022-08-10T15:04:01.579Z,51.30
2022-08-10T15:05:39.356Z,56.50
2022-08-10T15:07:47.216Z,50.90
2022-08-10T15:10:04.317Z,50.70
2022-08-10T15:12:13.697Z,46.40
2022-08-10T15:14:43.257Z,50.50
2022-08-10T15:16:42.860Z,46.00
2022-08-10T15:18:58.540Z,41.00
2022-08-10T15:21:04.242Z,49.50
2022-08-10T15:23:29.836Z,43.80
2022-08-10T15:25:39.642Z,44.40
2022-08-10T15:28:06.632Z,44.60
2022-08-10T15:30:10.799Z,47.30
2022-08-10T15:32:31.567Z,42.80
2022-08-10T15:34:52.821Z,52.60
2022-08-10T15:37:36.784Z,43.30
2022-08-10T15:40:22.577Z,46.90
2022-08-10T15:42:17.479Z,54.60
2022-08-10T15:44:19.426Z,43.00
2022-08-10T15:46:32.851Z,41.80
2022-08-10T15:48:59.362Z,39.80
2022-08-10T15:51:06.385Z,39.00
2022-08-10T15:53:15.946Z,46.30
2022-08-10T15:55:42.460Z,40.30
2022-08-10T15:58:00.715Z,46.50
2022-08-10T16:00:10.046Z,45.50
2022-08-10T16:02:20.810Z,40.70
2022-08-10T16:04:32.236Z,39.00
2022-08-10T16:06:39.700Z,41.20
2022-08-10T16:08:55.953Z,39.50
2022-08-10T16:11:08.140Z,42.30
2022-08-10T16:13:59.299Z,50.30
2022-08-10T16:15:39.358Z,50.20
2022-08-10T16:17:55.485Z,45.70
2022-08-10T16:20:00.303Z,48.20
2022-08-10T16:22:33.797Z,52.70
2022-08-10T16:24:35.808Z,48.10
2022-08-10T16:26:42.891Z,50.70
2022-08-10T16:28:57.840Z,49.80
2022-08-10T16:31:01.895Z,47.50
2022-08-10T16:33:05.512Z,49.60
2022-08-10T16:35:13.931Z,48.00
2022-08-10T16:37:18.206Z,51.70
2022-08-10T16:39:58.107Z,48.30
2022-08-10T16:42:03.261Z,48.20
2022-08-10T16:44:10.394Z,50.90
2022-08-10T16:46:16.518Z,53.80
2022-08-10T16:48:48.844Z,51.70
2022-08-10T16:50:51.078Z,48.80
2022-08-10T16:52:54.714Z,53.50
2022-08-10T16:55:23.876Z,49.40
2022-08-10T16:57:43.318Z,52.10
2022-08-10T16:59:47.102Z,48.00
2022-08-10T17:01:51.652Z,54.70
2022-08-10T17:04:08.456Z,49.30
2022-08-10T17:06:16.398Z,58.30
2022-08-10T17:08:20.609Z,48.30
2022-08-10T17:10:23.080Z,51.30
2022-08-10T17:12:27.651Z,54.00
2022-08-10T17:14:29.942Z,52.90
2022-08-10T17:16:43.228Z,50.60
2022-08-10T17:18:47.923Z,51.30
2022-08-10T17:20:51.272Z,50.90
2022-08-10T17:22:57.016Z,54.30
2022-08-10T17:25:19.170Z,64.50
2022-08-10T17:28:04.911Z,52.70
2022-08-10T17:29:58.166Z,55.80
2022-08-10T17:32:27.374Z,55.80
2022-08-10T17:34:44.281Z,56.70
2022-08-10T17:36:51.106Z,53.70
2022-08-10T17:38:54.716Z,54.40
2022-08-10T17:41:04.143Z,54.80
2022-08-10T17:43:06.260Z,53.80
2022-08-10T17:45:46.693Z,55.60
2022-08-10T17:47:39.082Z,54.90
2022-08-10T17:49:43.359Z,58.70
2022-08-10T17:51:52.119Z,55.60
2022-08-10T17:53:58.535Z,57.50
2022-08-10T17:56:01.776Z,55.90
2022-08-10T17:58:10.667Z,57.40
2022-08-10T18:00:14.918Z,58.30
2022-08-10T18:02:21.171Z,56.70
2022-08-10T18:04:24.981Z,60.60
2022-08-10T18:06:28.693Z,57.40
2022-08-10T18:08:36.104Z,63.30
2022-08-10T18:10:38.473Z,65.20
2022-08-10T18:12:47.610Z,60.60
2022-08-10T18:14:53.077Z,65.90
2022-08-10T18:16:57.057Z,63.60
2022-08-10T18:19:08.430Z,64.50
2022-08-10T18:21:23.595Z,64.00
2022-08-10T18:23:32.296Z,69.30
2022-08-10T18:25:42.292Z,67.50
2022-08-10T18:28:00.947Z,69.60
2022-08-10T18:30:07.876Z,70.80
2022-08-10T18:32:11.583Z,67.30
2022-08-10T18:34:19.193Z,69.00
2022-08-10T18:36:23.897Z,73.90
2022-08-10T18:38:26.950Z,71.10
2022-08-10T18:40:36.326Z,71.20
2022-08-10T18:42:49.968Z,73.20
2022-08-10T18:45:04.762Z,71.70
2022-08-10T18:47:18.671Z,71.70
2022-08-10T18:49:40.415Z,71.20
2022-08-10T18:51:47.437Z,71.80
2022-08-10T18:53:57.854Z,72.20
2022-08-10T18:56:47.842Z,71.80
2022-08-10T18:59:13.495Z,71.90
2022-08-10T19:01:32.427Z,71.80
2022-08-10T19:03:53.984Z,71.80
2022-08-10T19:06:07.739Z,72.20
2022-08-10T19:08:29.951Z,72.70
2022-08-10T19:11:12.517Z,73.10
2022-08-10T19:13:32.351Z,74.80
2022-08-10T19:15:53.540Z,74.20
2022-08-10T19:18:07.420Z,74.70
2022-08-10T19:20:35.259Z,75.50
2022-08-10T19:23:06.378Z,73.80
2022-08-10T19:26:43.041Z,74.00
2022-08-10T19:28:45.701Z,76.00
2022-08-10T19:31:12.418Z,75.10
2022-08-10T19:33:27.919Z,75.40
2022-08-10T19:36:05.379Z,78.80
2022-08-10T19:38:32.878Z,76.40
2022-08-10T19:40:59.581Z,80.40
2022-08-10T19:43:20.846Z,76.80
2022-08-10T19:46:03.246Z,79.60
2022-08-10T19:49:00.033Z,78.80
2022-08-10T19:51:14.653Z,82.50
2022-08-10T19:53:25.238Z,79.10
2022-08-10T19:55:32.431Z,81.90
2022-08-10T19:57:39.231Z,82.20
2022-08-10T20:00:15.704Z,78.80
2022-08-10T20:02:26.305Z,79.40
2022-08-10T20:04:36.207Z,83.00
2022-08-10T20:07:01.269Z,81.20
2022-08-10T20:09:13.326Z,79.40
2022-08-10T20:11:45.559Z,80.40
2022-08-10T20:14:03.391Z,78.50
2022-08-10T20:16:12.298Z,82.10
2022-08-10T20:18:25.841Z,79.60
2022-08-10T20:20:33.399Z,90.90
2022-08-10T20:22:46.185Z,90.90
2022-08-10T20:25:00.144Z,92.80
2022-08-10T20:28:00.648Z,89.60
2022-08-10T20:30:09.779Z,92.20
2022-08-10T20:32:17.535Z,87.00
2022-08-10T20:34:25.377Z,90.60
2022-08-10T20:36:38.053Z,91.10
2022-08-10T20:38:58.129Z,90.20
2022-08-10T20:41:06.020Z,90.40
2022-08-10T20:43:22.428Z,91.30
2022-08-10T20:45:46.632Z,91.30
2022-08-10T20:48:01.951Z,90.00
2022-08-10T20:50:21.611Z,90.00
2022-08-10T20:52:25.601Z,90.10
2022-08-10T20:54:33.838Z,91.90
2022-08-10T20:56:35.563Z,90.70
2022-08-10T20:59:16.300Z,92.30
2022-08-10T21:02:01.528Z,90.80
2022-08-10T21:04:18.785Z,90.40
2022-08-10T21:06:42.156Z,94.80
2022-08-10T21:09:12.831Z,90.90
2022-08-10T21:11:32.188Z,91.90
2022-08-10T21:14:16.546Z,92.10
2022-08-10T21:16:33.164Z,91.20
2022-08-10T21:18:51.826Z,91.70
2022-08-10T21:21:37.749Z,92.60
2022-08-10T21:23:51.614Z,92.00
2022-08-10T21:26:13.360Z,92.00
2022-08-10T21:28:40.232Z,92.10
2022-08-10T21:30:51.070Z,92.30
2022-08-10T21:33:09.089Z,92.10
2022-08-10T21:35:20.424Z,92.70
2022-08-10T21:37:56.685Z,92.80
2022-08-10T21:40:34.815Z,92.70
2022-08-10T21:43:44.019Z,93.20
2022-08-10T21:46:23.526Z,92.60
2022-08-10T21:49:37.001Z,92.80
2022-08-10T21:52:35.658Z,92.90
2022-08-10T21:55:16.179Z,93.70
2022-08-10T21:58:00.541Z,94.50
2022-08-10T22:00:24.321Z,94.00
2022-08-10T22:02:51.662Z,94.50
2022-08-10T22:05:18.063Z,95.20
2022-08-10T22:07:41.606Z,96.80
2022-08-10T22:10:04.822Z,95.30
2022-08-10T22:12:38.073Z,96.00
2022-08-10T22:15:10.805Z,96.10
2022-08-10T22:18:03.126Z,96.60
2022-08-10T22:20:42.246Z,96.50
2022-08-10T22:23:19.328Z,96.70
2022-08-10T22:26:08.013Z,97.90
2022-08-10T22:28:34.236Z,99.10
2022-08-10T22:34:00.067Z,98.00
2022-08-10T22:36:42.484Z,98.60
2022-08-10T22:40:10.957Z,98.70
2022-08-10T22:42:29.558Z,99.20
2022-08-10T22:45:13.689Z,99.20
2022-08-10T22:47:42.098Z,99.10
2022-08-10T22:49:43.932Z,99.00
2022-08-10T22:52:16.866Z,99.10
2022-08-10T22:54:52.733Z,99.90
2022-08-10T22:57:13.039Z,99.90
2022-08-10T22:59:14.883Z,99.90
2022-08-10T23:02:08.413Z,99.90
2022-08-10T23:04:18.022Z,99.90
2022-08-10T23:06:26.278Z,99.90
2022-08-10T23:08:34.547Z,99.90
2022-08-10T23:10:42.379Z,99.90
2022-08-10T23:13:05.518Z,99.90
2022-08-10T23:15:35.400Z,99.90
2022-08-10T23:18:01.944Z,99.90
2022-08-10T23:20:15.738Z,99.90
2022-08-10T23:22:30.651Z,99.90
2022-08-10T23:24:41.781Z,99.90
2022-08-10T23:26:44.602Z,99.90
2022-08-10T23:28:58.379Z,99.90
2022-08-10T23:31:12.196Z,99.90
2022-08-10T23:33:15.587Z,99.90
2022-08-10T23:36:30.146Z,99.90
2022-08-10T23:37:45.870Z,99.90
2022-08-10T23:39:51.859Z,99.90
2022-08-10T23:42:04.860Z,99.90
2022-08-10T23:44:10.688Z,99.90
2022-08-10T23:46:16.748Z,99.90
2022-08-10T23:48:22.478Z,99.90
2022-08-10T23:50:25.192Z,99.90
2022-08-10T23:52:31.911Z,99.90
2022-08-10T23:54:34.947Z,99.90
2022-08-10T23:56:41.802Z,99.90
2022-08-10T23:58:49.570Z,99.90
